createdAt,value
2023-03-16T00:04:12.776Z,5.38
2023-03-16T00:07:05.475Z,5.38
2023-03-16T00:13:02.384Z,5.38
2023-03-16T00:15:35.593Z,5.36
2023-03-16T00:18:05.380Z,5.33
2023-03-16T00:20:35.615Z,5.33
2023-03-16T00:23:05.812Z,5.32
2023-03-16T00:25:36.086Z,5.33
2023-03-16T00:28:05.812Z,5.34
2023-03-16T00:30:38.147Z,5.34
2023-03-16T00:33:08.050Z,5.34
2023-03-16T00:35:38.040Z,5.33
2023-03-16T00:38:07.861Z,5.32
2023-03-16T00:40:37.589Z,5.32
2023-03-16T00:43:10.429Z,5.31
2023-03-16T00:45:45.163Z,5.31
2023-03-16T00:48:14.990Z,5.32
2023-03-16T00:50:45.272Z,5.32
2023-03-16T00:53:15.029Z,5.31
2023-03-16T00:55:44.777Z,5.31
2023-03-16T00:58:15.101Z,5.32
2023-03-16T01:00:48.777Z,5.34
2023-03-16T01:03:18.614Z,5.34
2023-03-16T01:05:49.009Z,5.36
2023-03-16T01:08:18.845Z,5.36
2023-03-16T01:10:48.619Z,5.37
2023-03-16T01:13:18.347Z,5.36
2023-03-16T01:15:53.932Z,5.38
2023-03-16T01:18:23.682Z,5.39
2023-03-16T01:20:53.631Z,5.38
2023-03-16T01:23:24.149Z,5.38
2023-03-16T01:25:55.717Z,5.39
2023-03-16T01:28:28.366Z,5.39
2023-03-16T01:31:03.579Z,5.40
2023-03-16T01:33:33.777Z,5.38
2023-03-16T01:36:06.322Z,5.38
2023-03-16T01:38:36.468Z,5.37
2023-03-16T01:41:13.210Z,5.36
2023-03-16T01:43:44.770Z,5.36
2023-03-16T01:46:26.140Z,5.35
2023-03-16T01:49:05.734Z,5.36
2023-03-16T01:51:42.227Z,5.37
2023-03-16T01:54:17.975Z,5.38
2023-03-16T01:56:55.484Z,5.39
2023-03-16T01:59:29.340Z,5.40
2023-03-16T02:02:04.963Z,5.40
2023-03-16T02:04:48.449Z,5.40
2023-03-16T02:07:20.798Z,5.39
2023-03-16T02:09:54.818Z,5.40
2023-03-16T02:12:24.741Z,5.38
2023-03-16T02:14:55.238Z,5.37
2023-03-16T02:17:31.103Z,5.39
2023-03-16T02:20:14.621Z,5.38
2023-03-16T02:22:49.364Z,5.38
2023-03-16T02:25:21.612Z,5.37
2023-03-16T02:28:03.458Z,5.36
2023-03-16T02:30:35.968Z,5.35
2023-03-16T02:33:06.686Z,5.36
2023-03-16T02:35:37.110Z,5.35
2023-03-16T02:38:06.884Z,5.36
2023-03-16T02:40:38.868Z,5.36
2023-03-16T02:43:13.978Z,5.37
2023-03-16T02:45:49.534Z,5.37
2023-03-16T02:48:24.664Z,5.36
2023-03-16T02:50:56.557Z,5.37
2023-03-16T02:53:26.600Z,5.37
2023-03-16T02:55:56.364Z,5.39
2023-03-16T02:58:26.077Z,5.38
2023-03-16T03:00:59.809Z,5.41
2023-03-16T03:03:29.612Z,5.42
2023-03-16T03:05:59.458Z,5.44
2023-03-16T03:08:29.200Z,5.44
2023-03-16T03:10:59.132Z,5.44
2023-03-16T03:13:28.856Z,5.46
2023-03-16T03:16:03.408Z,5.45
2023-03-16T03:18:34.833Z,5.44
2023-03-16T03:21:04.846Z,5.44
2023-03-16T03:23:35.096Z,5.45
2023-03-16T03:26:08.136Z,5.43
2023-03-16T03:28:37.904Z,5.41
2023-03-16T03:31:10.730Z,5.41
2023-03-16T03:33:40.706Z,5.39
2023-03-16T03:36:11.433Z,5.39
2023-03-16T03:38:41.430Z,5.38
2023-03-16T03:41:11.311Z,5.38
2023-03-16T03:43:41.160Z,5.39
2023-03-16T03:46:13.665Z,5.38
2023-03-16T03:48:43.498Z,5.39
2023-03-16T03:51:13.253Z,5.38
2023-03-16T03:53:43.008Z,5.40
2023-03-16T03:56:12.853Z,5.40
2023-03-16T03:58:42.581Z,5.42
2023-03-16T04:01:17.937Z,5.42
2023-03-16T04:03:47.751Z,5.42
2023-03-16T04:06:17.555Z,5.43
2023-03-16T04:08:47.394Z,5.43
2023-03-16T04:11:17.144Z,5.43
2023-03-16T04:13:46.882Z,5.44
2023-03-16T04:16:19.292Z,5.45
2023-03-16T04:18:49.163Z,5.47
2023-03-16T04:21:20.499Z,5.48
2023-03-16T04:23:54.400Z,5.48
2023-03-16T04:26:25.739Z,5.48
2023-03-16T04:28:55.578Z,5.49
2023-03-16T04:31:27.996Z,5.51
2023-03-16T04:33:57.723Z,5.51
2023-03-16T04:36:27.530Z,5.53
2023-03-16T04:38:57.277Z,5.52
2023-03-16T04:41:29.156Z,5.54
2023-03-16T04:43:59.201Z,5.54
2023-03-16T04:46:31.597Z,5.54
2023-03-16T04:49:01.639Z,5.54
2023-03-16T04:51:31.842Z,5.52
2023-03-16T04:54:01.668Z,5.55
2023-03-16T04:56:31.398Z,5.54
2023-03-16T04:59:01.378Z,5.56
2023-03-16T05:01:33.744Z,5.56
2023-03-16T05:04:03.502Z,5.57
2023-03-16T05:06:36.281Z,5.57
2023-03-16T05:09:08.557Z,5.59
2023-03-16T05:11:38.523Z,5.57
2023-03-16T05:14:08.381Z,5.57
2023-03-16T05:16:42.114Z,5.55
2023-03-16T05:19:12.626Z,5.56
2023-03-16T05:21:42.351Z,5.57
2023-03-16T05:24:13.040Z,5.58
2023-03-16T05:26:42.841Z,5.60
2023-03-16T05:29:12.601Z,5.60
2023-03-16T05:31:46.849Z,5.62
2023-03-16T05:34:16.691Z,5.62
2023-03-16T05:36:46.664Z,5.63
2023-03-16T05:39:16.417Z,5.63
2023-03-16T05:41:47.397Z,5.62
2023-03-16T05:44:17.137Z,5.63
2023-03-16T05:46:49.565Z,5.63
2023-03-16T05:49:19.549Z,5.63
2023-03-16T05:51:49.993Z,5.65
2023-03-16T05:54:19.868Z,5.67
2023-03-16T05:56:50.008Z,5.67
2023-03-16T05:59:21.563Z,5.68
2023-03-16T06:01:54.179Z,5.68
2023-03-16T06:04:24.223Z,5.70
2023-03-16T06:06:53.996Z,5.71
2023-03-16T06:09:26.791Z,5.69
2023-03-16T06:11:56.541Z,5.71
2023-03-16T06:14:26.325Z,5.71
2023-03-16T06:16:58.712Z,5.69
2023-03-16T06:19:28.454Z,5.70
2023-03-16T06:21:58.239Z,5.69
2023-03-16T06:24:27.980Z,5.67
2023-03-16T06:26:57.785Z,5.66
2023-03-16T06:29:27.523Z,5.66
2023-03-16T06:32:00.210Z,5.63
2023-03-16T06:34:29.997Z,5.60
2023-03-16T06:37:02.616Z,5.61
2023-03-16T06:39:32.918Z,5.62
2023-03-16T06:42:06.937Z,5.63
2023-03-16T06:44:37.574Z,5.63
2023-03-16T06:47:10.574Z,5.65
2023-03-16T06:49:40.383Z,5.65
2023-03-16T06:52:10.692Z,5.67
2023-03-16T06:54:40.510Z,5.67
2023-03-16T06:57:10.306Z,5.67
2023-03-16T06:59:40.043Z,5.69
2023-03-16T07:02:14.530Z,5.70
2023-03-16T07:04:44.636Z,5.70
2023-03-16T07:07:14.817Z,5.71
2023-03-16T07:09:44.930Z,5.73
2023-03-16T07:12:15.081Z,5.75
2023-03-16T07:14:44.856Z,5.80
2023-03-16T07:17:17.208Z,5.82
2023-03-16T07:19:49.987Z,5.84
2023-03-16T07:22:19.719Z,5.86
2023-03-16T07:24:52.193Z,5.87
2023-03-16T07:27:23.441Z,5.89
2023-03-16T07:29:55.015Z,5.91
2023-03-16T07:32:30.168Z,5.93
2023-03-16T07:35:00.268Z,5.93
2023-03-16T07:37:30.074Z,5.99
2023-03-16T07:39:59.947Z,6.01
2023-03-16T07:42:29.795Z,6.07
2023-03-16T07:44:59.565Z,6.08
2023-03-16T07:47:33.761Z,6.13
2023-03-16T07:50:04.086Z,6.16
2023-03-16T07:52:37.110Z,6.19
2023-03-16T07:55:09.833Z,6.24
2023-03-16T07:57:40.000Z,6.28
2023-03-16T08:00:11.377Z,6.31
2023-03-16T08:02:44.176Z,6.34
2023-03-16T08:05:15.562Z,6.37
2023-03-16T08:07:45.370Z,6.40
2023-03-16T08:10:15.439Z,6.41
2023-03-16T08:12:45.210Z,6.44
2023-03-16T08:15:15.688Z,6.47
2023-03-16T08:17:49.833Z,6.53
2023-03-16T08:20:19.848Z,6.55
2023-03-16T08:22:49.898Z,6.58
2023-03-16T08:25:20.254Z,6.58
2023-03-16T08:27:51.396Z,6.59
2023-03-16T08:30:22.773Z,6.59
2023-03-16T08:32:55.165Z,6.59
2023-03-16T08:35:24.916Z,6.59
2023-03-16T08:37:55.701Z,6.58
2023-03-16T08:40:29.391Z,6.58
2023-03-16T08:43:01.821Z,6.58
2023-03-16T08:45:31.634Z,6.57
2023-03-16T08:48:05.139Z,6.57
2023-03-16T08:50:34.889Z,6.57
2023-03-16T08:53:04.576Z,6.57
2023-03-16T08:55:34.301Z,6.59
2023-03-16T08:58:04.497Z,6.62
2023-03-16T09:00:34.332Z,6.65
2023-03-16T09:03:06.915Z,6.66
2023-03-16T09:05:37.007Z,6.67
2023-03-16T09:08:06.914Z,6.68
2023-03-16T09:10:38.191Z,6.69
2023-03-16T09:13:08.734Z,6.71
2023-03-16T09:15:39.079Z,6.72
2023-03-16T09:18:11.794Z,6.72
2023-03-16T09:20:41.597Z,6.74
2023-03-16T09:23:11.825Z,6.75
2023-03-16T09:25:41.540Z,6.78
2023-03-16T09:28:11.439Z,6.80
2023-03-16T09:30:41.209Z,6.81
2023-03-16T09:33:13.797Z,6.80
2023-03-16T09:35:43.570Z,6.78
2023-03-16T09:38:16.439Z,6.77
2023-03-16T09:40:47.342Z,6.78
2023-03-16T09:43:49.861Z,6.82
2023-03-16T09:46:35.006Z,6.84
2023-03-16T09:49:08.637Z,6.87
2023-03-16T09:51:47.209Z,6.92
2023-03-16T09:54:26.667Z,6.94
2023-03-16T09:56:58.722Z,7.00
2023-03-16T09:59:28.703Z,7.03
2023-03-16T10:02:29.338Z,7.09
2023-03-16T10:05:10.682Z,7.09
2023-03-16T10:07:53.360Z,7.11
2023-03-16T10:10:42.082Z,7.14
2023-03-16T10:13:26.050Z,7.17
2023-03-16T10:15:58.663Z,7.18
2023-03-16T10:18:32.490Z,7.21
2023-03-16T10:21:06.162Z,7.24
2023-03-16T10:23:40.932Z,7.25
2023-03-16T10:26:16.962Z,7.30
2023-03-16T10:28:46.742Z,7.33
2023-03-16T10:31:24.738Z,7.37
2023-03-16T10:34:02.180Z,7.37
2023-03-16T10:36:38.236Z,7.38
2023-03-16T10:39:10.287Z,7.39
2023-03-16T10:41:41.796Z,7.42
2023-03-16T10:44:14.935Z,7.45
2023-03-16T10:46:48.495Z,7.48
2023-03-16T10:49:25.926Z,7.49
2023-03-16T10:52:00.427Z,7.51
2023-03-16T10:54:40.240Z,7.52
2023-03-16T10:57:18.705Z,7.52
2023-03-16T10:59:52.903Z,7.52
2023-03-16T11:02:26.518Z,7.53
2023-03-16T11:04:57.543Z,7.53
2023-03-16T11:07:30.098Z,7.55
2023-03-16T11:10:01.976Z,7.57
2023-03-16T11:12:35.051Z,7.56
2023-03-16T11:15:09.457Z,7.57
2023-03-16T11:17:49.870Z,7.58
2023-03-16T11:20:23.581Z,7.58
2023-03-16T11:22:56.386Z,7.61
2023-03-16T11:25:32.060Z,7.64
2023-03-16T11:28:13.742Z,7.65
2023-03-16T11:30:46.402Z,7.68
2023-03-16T11:33:17.346Z,7.74
2023-03-16T11:35:59.260Z,7.78
2023-03-16T11:38:38.474Z,7.84
2023-03-16T11:41:14.988Z,7.89
2023-03-16T11:43:53.665Z,7.93
2023-03-16T11:46:27.936Z,7.93
2023-03-16T11:49:14.568Z,7.99
2023-03-16T11:51:50.816Z,8.02
2023-03-16T11:54:38.776Z,8.08
2023-03-16T11:57:14.034Z,8.12
2023-03-16T12:00:01.700Z,8.15
2023-03-16T12:02:47.619Z,8.19
2023-03-16T12:05:35.582Z,8.21
2023-03-16T12:08:20.786Z,8.23
2023-03-16T12:11:00.446Z,8.25
2023-03-16T12:13:44.846Z,8.30
2023-03-16T12:16:22.431Z,8.35
2023-03-16T12:18:57.941Z,8.42
2023-03-16T12:21:34.461Z,8.49
2023-03-16T12:24:07.172Z,8.55
2023-03-16T12:26:43.447Z,8.62
2023-03-16T12:29:24.485Z,8.69
2023-03-16T12:32:03.419Z,8.77
2023-03-16T12:34:41.550Z,8.86
2023-03-16T12:37:25.484Z,8.94
2023-03-16T12:40:09.229Z,8.99
2023-03-16T12:42:55.398Z,9.04
2023-03-16T12:45:35.455Z,9.12
2023-03-16T12:48:17.098Z,9.16
2023-03-16T12:50:54.233Z,9.21
2023-03-16T12:53:31.929Z,9.26
2023-03-16T12:56:08.980Z,9.30
2023-03-16T12:58:45.721Z,9.36
2023-03-16T13:01:18.626Z,9.40
2023-03-16T13:03:52.370Z,9.43
2023-03-16T13:06:25.120Z,9.47
2023-03-16T13:09:01.194Z,9.49
2023-03-16T13:11:31.388Z,9.48
2023-03-16T13:14:18.275Z,9.49
2023-03-16T13:16:49.925Z,9.49
2023-03-16T13:19:27.429Z,9.50
2023-03-16T13:22:09.418Z,9.50
2023-03-16T13:24:42.804Z,9.48
2023-03-16T13:27:23.404Z,9.52
2023-03-16T13:30:05.424Z,9.56
2023-03-16T13:32:36.736Z,9.59
2023-03-16T13:35:11.623Z,9.61
2023-03-16T13:37:44.823Z,9.64
2023-03-16T13:40:23.862Z,9.68
2023-03-16T13:42:56.340Z,9.74
2023-03-16T13:45:36.529Z,9.84
2023-03-16T13:48:08.758Z,9.91
2023-03-16T13:50:41.401Z,9.97
2023-03-16T13:53:17.717Z,10.02
2023-03-16T13:55:50.350Z,10.05
2023-03-16T13:58:26.170Z,10.09
2023-03-16T14:01:05.197Z,10.13
2023-03-16T14:03:37.096Z,10.14
2023-03-16T14:06:08.103Z,10.18
2023-03-16T14:08:38.266Z,10.18
2023-03-16T14:11:08.188Z,10.19
2023-03-16T14:13:39.662Z,10.18
2023-03-16T14:16:20.043Z,10.16
2023-03-16T14:18:51.791Z,10.17
2023-03-16T14:21:25.913Z,10.18
2023-03-16T14:23:57.999Z,10.18
2023-03-16T14:26:28.001Z,10.21
2023-03-16T14:29:01.362Z,10.24
2023-03-16T14:31:41.570Z,10.26
2023-03-16T14:34:25.482Z,10.29
2023-03-16T14:36:55.425Z,10.29
2023-03-16T14:39:30.686Z,10.31
2023-03-16T14:42:00.902Z,10.33
2023-03-16T14:44:35.576Z,10.37
2023-03-16T14:47:09.224Z,10.40
2023-03-16T14:49:43.220Z,10.43
2023-03-16T14:52:24.942Z,10.45
2023-03-16T14:54:55.460Z,10.47
2023-03-16T14:57:26.061Z,10.49
2023-03-16T14:59:56.231Z,10.52
2023-03-16T15:02:32.784Z,10.54
2023-03-16T15:05:03.844Z,10.56
2023-03-16T15:07:37.541Z,10.56
2023-03-16T15:10:13.448Z,10.58
2023-03-16T15:12:50.422Z,10.56
2023-03-16T15:15:23.051Z,10.59
2023-03-16T15:17:56.622Z,10.59
2023-03-16T15:20:31.970Z,10.60
2023-03-16T15:23:03.377Z,10.62
2023-03-16T15:25:38.712Z,10.59
2023-03-16T15:28:15.948Z,10.57
2023-03-16T15:30:46.820Z,10.59
2023-03-16T15:33:19.361Z,10.60
2023-03-16T15:35:53.049Z,10.60
2023-03-16T15:38:26.795Z,10.59
2023-03-16T15:40:58.505Z,10.57
2023-03-16T15:43:30.048Z,10.60
2023-03-16T15:46:01.649Z,10.63
2023-03-16T15:48:34.118Z,10.63
2023-03-16T15:51:07.778Z,10.64
2023-03-16T15:53:41.509Z,10.64
2023-03-16T15:56:15.038Z,10.65
2023-03-16T15:58:46.878Z,10.66
2023-03-16T16:01:25.560Z,10.64
2023-03-16T16:03:59.345Z,10.67
2023-03-16T16:06:30.550Z,10.69
2023-03-16T16:09:00.369Z,10.69
2023-03-16T16:11:31.297Z,10.69
2023-03-16T16:14:02.253Z,10.70
2023-03-16T16:16:33.900Z,10.69
2023-03-16T16:19:06.422Z,10.68
2023-03-16T16:21:36.484Z,10.67
2023-03-16T16:24:06.532Z,10.66
2023-03-16T16:26:52.174Z,10.68
2023-03-16T16:29:36.198Z,10.67
2023-03-16T16:32:06.160Z,10.67
2023-03-16T16:34:38.573Z,10.67
2023-03-16T16:37:08.305Z,10.67
2023-03-16T16:39:38.131Z,10.65
2023-03-16T16:42:08.417Z,10.63
2023-03-16T16:44:38.259Z,10.62
2023-03-16T16:47:16.926Z,10.57
2023-03-16T16:49:49.650Z,10.56
2023-03-16T16:52:20.439Z,10.54
2023-03-16T16:54:50.204Z,10.54
2023-03-16T16:57:22.533Z,10.55
2023-03-16T16:59:53.188Z,10.54
2023-03-16T17:02:29.889Z,10.52
2023-03-16T17:05:02.374Z,10.49
2023-03-16T17:07:32.364Z,10.47
2023-03-16T17:10:05.548Z,10.46
2023-03-16T17:12:35.868Z,10.42
2023-03-16T17:15:06.005Z,10.39
2023-03-16T17:17:35.789Z,10.37
2023-03-16T17:20:16.861Z,10.34
2023-03-16T17:22:50.888Z,10.30
2023-03-16T17:25:20.817Z,10.26
2023-03-16T17:27:53.578Z,10.23
2023-03-16T17:30:29.866Z,10.18
2023-03-16T17:33:06.584Z,10.15
2023-03-16T17:35:45.134Z,10.13
2023-03-16T17:38:24.322Z,10.11
2023-03-16T17:40:58.520Z,10.07
2023-03-16T17:43:28.350Z,10.01
2023-03-16T17:45:58.313Z,9.96
2023-03-16T17:48:28.451Z,9.92
2023-03-16T17:51:00.881Z,9.87
2023-03-16T17:53:30.660Z,9.84
2023-03-16T17:56:00.522Z,9.79
2023-03-16T17:58:32.660Z,9.74
2023-03-16T18:01:03.280Z,9.68
2023-03-16T18:03:33.107Z,9.65
2023-03-16T18:06:05.606Z,9.61
2023-03-16T18:08:36.936Z,9.57
2023-03-16T18:11:10.934Z,9.56
2023-03-16T18:13:42.694Z,9.52
2023-03-16T18:16:20.066Z,9.48
2023-03-16T18:18:49.940Z,9.45
2023-03-16T18:21:25.912Z,9.44
2023-03-16T18:23:57.093Z,9.42
2023-03-16T18:26:27.744Z,9.40
2023-03-16T18:28:58.106Z,9.40
2023-03-16T18:31:31.109Z,9.40
2023-03-16T18:34:06.758Z,9.39
2023-03-16T18:36:41.491Z,9.38
2023-03-16T18:39:21.989Z,9.37
2023-03-16T18:41:52.379Z,9.36
2023-03-16T18:44:24.316Z,9.35
2023-03-16T18:46:57.641Z,9.31
2023-03-16T18:49:32.648Z,9.31
2023-03-16T18:52:05.251Z,9.29
2023-03-16T18:54:36.989Z,9.31
2023-03-16T18:57:20.696Z,9.28
2023-03-16T18:59:50.913Z,9.24
2023-03-16T19:02:31.343Z,9.20
2023-03-16T19:05:04.711Z,9.18
2023-03-16T19:07:39.595Z,9.12
2023-03-16T19:10:20.842Z,9.08
2023-03-16T19:12:50.578Z,9.04
2023-03-16T19:15:23.022Z,9.03
2023-03-16T19:17:56.097Z,9.01
2023-03-16T19:20:29.106Z,9.01
2023-03-16T19:23:06.039Z,9.01
2023-03-16T19:25:39.207Z,8.97
2023-03-16T19:28:14.850Z,8.96
2023-03-16T19:30:46.784Z,8.93
2023-03-16T19:33:23.533Z,8.90
2023-03-16T19:35:53.986Z,8.89
2023-03-16T19:38:28.030Z,8.87
2023-03-16T19:41:07.182Z,8.87
2023-03-16T19:54:48.627Z,8.84
2023-03-16T19:57:24.522Z,8.85
2023-03-16T19:59:58.596Z,8.85
2023-03-16T20:02:30.509Z,8.86
2023-03-16T20:05:01.855Z,8.85
2023-03-16T20:07:37.934Z,8.87
2023-03-16T20:10:12.149Z,8.86
2023-03-16T20:12:44.594Z,8.87
2023-03-16T20:15:21.600Z,8.88
2023-03-16T20:17:52.981Z,8.89
2023-03-16T20:20:28.262Z,8.88
2023-03-16T20:22:59.933Z,8.86
2023-03-16T20:25:38.427Z,8.86
2023-03-16T20:28:34.267Z,8.83
2023-03-16T20:31:04.370Z,8.80
2023-03-16T20:33:35.155Z,8.79
2023-03-16T20:36:05.173Z,8.80
2023-03-16T20:38:35.844Z,8.77
2023-03-16T20:41:22.358Z,8.77
2023-03-16T20:43:52.553Z,8.74
2023-03-16T20:47:24.815Z,8.72
2023-03-16T20:49:57.527Z,8.70
2023-03-16T20:52:30.994Z,8.70
2023-03-16T20:55:02.821Z,8.72
2023-03-16T20:57:36.479Z,8.73
2023-03-16T21:00:15.734Z,8.74
2023-03-16T21:02:45.926Z,8.75
2023-03-16T21:05:16.996Z,8.77
2023-03-16T21:07:46.852Z,8.77
2023-03-16T21:10:20.778Z,8.78
2023-03-16T21:12:57.641Z,8.80
2023-03-16T21:15:29.651Z,8.79
2023-03-16T21:18:01.870Z,8.83
2023-03-16T21:20:34.367Z,8.83
2023-03-16T21:23:04.389Z,8.85
2023-03-16T21:25:37.491Z,8.87
2023-03-16T21:28:10.438Z,8.91
2023-03-16T21:30:46.030Z,8.91
2023-03-16T21:33:22.561Z,8.93
2023-03-16T21:35:52.402Z,8.94
2023-03-16T21:38:24.467Z,8.93
2023-03-16T21:40:54.689Z,8.94
2023-03-16T21:43:27.601Z,8.95
2023-03-16T21:45:58.966Z,8.96
2023-03-16T21:48:34.552Z,8.95
2023-03-16T21:51:04.365Z,8.97
2023-03-16T21:53:35.140Z,8.98
2023-03-16T21:56:05.300Z,8.99
2023-03-16T21:58:38.448Z,8.99
2023-03-16T22:01:08.638Z,9.00
2023-03-16T22:03:50.947Z,9.02
2023-03-16T22:06:21.351Z,9.03
2023-03-16T22:08:52.467Z,9.04
2023-03-16T22:11:23.943Z,9.02
2023-03-16T22:13:57.295Z,9.02
2023-03-16T22:16:30.101Z,9.02
2023-03-16T22:19:00.844Z,9.01
2023-03-16T22:21:35.263Z,9.00
2023-03-16T22:24:07.591Z,8.98
2023-03-16T22:26:37.519Z,8.98
2023-03-16T22:29:23.453Z,8.98
2023-03-16T22:31:56.511Z,8.94
2023-03-16T22:34:32.847Z,8.92
2023-03-16T22:37:07.521Z,8.88
2023-03-16T22:39:39.793Z,8.87
2023-03-16T22:42:27.861Z,8.86
2023-03-16T22:45:00.960Z,8.84
2023-03-16T22:47:34.228Z,8.82
2023-03-16T22:50:04.015Z,8.80
2023-03-16T22:52:38.203Z,8.78
2023-03-16T22:55:11.327Z,8.76
2023-03-16T22:57:41.142Z,8.74
2023-03-16T23:00:20.995Z,8.72
2023-03-16T23:02:51.607Z,8.69
2023-03-16T23:05:24.682Z,8.68
2023-03-16T23:07:55.165Z,8.63
2023-03-16T23:10:28.499Z,8.60
2023-03-16T23:12:59.555Z,8.58
2023-03-16T23:15:33.587Z,8.56
2023-03-16T23:18:03.341Z,8.54
2023-03-16T23:20:34.510Z,8.53
2023-03-16T23:23:04.288Z,8.53
2023-03-16T23:25:34.145Z,8.52
2023-03-16T23:28:05.027Z,8.51
2023-03-16T23:30:37.990Z,8.49
2023-03-16T23:33:08.168Z,8.48
2023-03-16T23:35:38.039Z,8.48
2023-03-16T23:38:08.265Z,8.46
2023-03-16T23:40:40.871Z,8.43
2023-03-16T23:43:11.470Z,8.43
2023-03-16T23:45:45.361Z,8.42
2023-03-16T23:48:19.689Z,8.45
2023-03-16T23:50:52.197Z,8.45
2023-03-16T23:53:22.849Z,8.49
2023-03-16T23:55:54.283Z,8.47
2023-03-16T23:58:24.062Z,8.45
